createdAt,value
2022-12-22T00:01:35.302Z,8.40
2022-12-22T00:04:20.932Z,8.40
2022-12-22T00:07:06.576Z,8.50
2022-12-22T00:09:52.075Z,8.50
2022-12-22T00:12:39.815Z,8.60
2022-12-22T00:15:31.196Z,8.60
2022-12-22T00:18:16.629Z,8.60
2022-12-22T00:21:01.806Z,8.60
2022-12-22T00:23:47.424Z,8.60
2022-12-22T00:26:33.252Z,8.60
2022-12-22T00:29:20.209Z,8.70
2022-12-22T00:32:06.150Z,8.80
2022-12-22T00:34:58.139Z,8.80
2022-12-22T00:37:48.007Z,8.90
2022-12-22T00:40:35.912Z,8.80
2022-12-22T00:43:22.699Z,8.90
2022-12-22T00:46:10.763Z,8.80
2022-12-22T00:48:58.182Z,8.90
2022-12-22T00:51:44.220Z,8.90
2022-12-22T00:54:31.290Z,8.80
2022-12-22T00:57:18.167Z,8.80
2022-12-22T01:00:04.514Z,8.90
2022-12-22T01:02:51.533Z,9.00
2022-12-22T01:05:37.262Z,8.90
2022-12-22T01:08:23.266Z,8.90
2022-12-22T01:11:09.377Z,8.90
2022-12-22T01:13:55.182Z,9.00
2022-12-22T01:16:41.124Z,9.10
2022-12-22T01:19:27.880Z,9.10
2022-12-22T01:22:14.287Z,9.10
2022-12-22T01:24:59.743Z,9.10
2022-12-22T01:27:45.639Z,9.10
2022-12-22T01:30:31.449Z,9.10
2022-12-22T01:33:16.980Z,9.10
2022-12-22T01:36:03.691Z,9.10
2022-12-22T01:38:49.286Z,9.10
2022-12-22T01:41:38.615Z,9.20
2022-12-22T01:44:35.038Z,9.20
2022-12-22T01:47:49.239Z,9.20
2022-12-22T01:50:37.925Z,9.20
2022-12-22T01:53:28.933Z,9.20
2022-12-22T01:56:16.041Z,9.20
2022-12-22T01:59:05.435Z,9.20
2022-12-22T02:01:52.058Z,9.20
2022-12-22T02:04:41.110Z,9.20
2022-12-22T02:07:41.864Z,9.20
2022-12-22T02:10:40.855Z,9.20
2022-12-22T02:13:38.263Z,9.20
2022-12-22T02:16:29.994Z,9.20
2022-12-22T02:19:21.307Z,9.20
2022-12-22T02:22:15.728Z,9.10
2022-12-22T02:25:08.007Z,9.20
2022-12-22T02:27:57.565Z,9.30
2022-12-22T02:30:44.887Z,9.20
2022-12-22T02:33:31.857Z,9.20
2022-12-22T02:36:23.721Z,9.20
2022-12-22T02:39:24.296Z,9.20
2022-12-22T02:42:21.231Z,9.20
2022-12-22T02:45:20.111Z,9.30
2022-12-22T02:48:10.219Z,9.30
2022-12-22T02:51:01.005Z,9.20
2022-12-22T02:53:48.922Z,9.20
2022-12-22T02:56:35.166Z,9.20
2022-12-22T02:59:20.732Z,9.20
2022-12-22T03:02:07.701Z,9.20
2022-12-22T03:04:53.065Z,9.30
2022-12-22T03:07:38.637Z,9.20
2022-12-22T03:10:25.307Z,9.20
2022-12-22T03:13:10.697Z,9.30
2022-12-22T03:15:56.136Z,9.20
2022-12-22T03:18:43.039Z,9.20
2022-12-22T03:21:28.556Z,9.20
2022-12-22T03:24:14.109Z,9.30
2022-12-22T03:26:42.128Z,9.20
2022-12-22T03:29:10.218Z,9.20
2022-12-22T03:31:38.403Z,9.20
2022-12-22T03:34:07.828Z,9.20
2022-12-22T03:36:35.931Z,9.20
2022-12-22T03:39:04.394Z,9.20
2022-12-22T03:41:50.535Z,9.20
2022-12-22T03:44:36.006Z,9.20
2022-12-22T03:47:04.099Z,9.20
2022-12-22T03:49:33.702Z,9.20
2022-12-22T03:52:01.742Z,9.30
2022-12-22T03:54:29.734Z,9.20
2022-12-22T03:56:57.915Z,9.20
2022-12-22T03:59:25.941Z,9.20
2022-12-22T04:01:55.666Z,9.20
2022-12-22T04:04:25.995Z,9.20
2022-12-22T04:06:56.401Z,9.30
2022-12-22T04:09:24.900Z,9.20
2022-12-22T04:12:10.867Z,9.30
2022-12-22T04:14:39.104Z,9.20
2022-12-22T04:17:08.137Z,9.30
2022-12-22T04:19:36.228Z,9.20
2022-12-22T04:22:07.173Z,9.20
2022-12-22T04:24:35.241Z,9.20
2022-12-22T04:27:03.345Z,9.00
2022-12-22T04:29:31.429Z,9.10
2022-12-22T04:31:59.536Z,9.10
2022-12-22T04:34:27.579Z,9.10
2022-12-22T04:36:57.649Z,9.10
2022-12-22T04:39:31.957Z,9.10
2022-12-22T04:41:59.989Z,9.10
2022-12-22T04:44:28.129Z,9.10
2022-12-22T04:46:56.163Z,9.20
2022-12-22T04:49:24.279Z,9.10
2022-12-22T04:51:52.375Z,9.20
2022-12-22T04:54:20.450Z,9.20
2022-12-22T04:56:49.891Z,9.20
2022-12-22T04:59:18.068Z,9.20
2022-12-22T05:01:46.241Z,9.30
2022-12-22T05:04:18.690Z,9.20
2022-12-22T05:06:49.859Z,9.30
2022-12-22T05:09:17.879Z,9.30
2022-12-22T05:11:45.896Z,9.40
2022-12-22T05:14:15.441Z,9.40
2022-12-22T05:16:43.625Z,9.40
2022-12-22T05:19:11.756Z,9.50
2022-12-22T05:21:39.779Z,9.50
2022-12-22T05:24:08.382Z,9.50
2022-12-22T05:26:36.404Z,9.60
2022-12-22T05:29:04.446Z,9.60
2022-12-22T05:31:33.955Z,9.60
2022-12-22T05:34:01.984Z,9.70
2022-12-22T05:36:30.019Z,9.60
2022-12-22T05:38:58.059Z,9.60
2022-12-22T05:41:26.171Z,9.60
2022-12-22T05:43:54.285Z,9.70
2022-12-22T05:46:23.549Z,9.70
2022-12-22T05:48:52.965Z,9.70
2022-12-22T05:51:20.953Z,9.70
2022-12-22T05:53:48.964Z,9.70
2022-12-22T05:56:16.993Z,9.70
2022-12-22T05:58:45.078Z,9.80
2022-12-22T06:01:13.115Z,9.80
2022-12-22T06:03:41.295Z,9.80
2022-12-22T06:06:10.758Z,9.80
2022-12-22T06:08:38.766Z,9.80
2022-12-22T06:11:06.843Z,9.80
2022-12-22T06:13:34.899Z,9.90
2022-12-22T06:16:03.871Z,9.80
2022-12-22T06:18:31.884Z,9.80
2022-12-22T06:20:59.922Z,9.80
2022-12-22T06:23:29.348Z,9.80
2022-12-22T06:25:58.525Z,9.80
2022-12-22T06:28:26.615Z,9.80
2022-12-22T06:30:54.889Z,9.80
2022-12-22T06:33:23.002Z,9.80
2022-12-22T06:35:57.960Z,9.80
2022-12-22T06:38:29.028Z,9.70
2022-12-22T06:40:57.484Z,9.90
2022-12-22T06:43:24.675Z,9.90
2022-12-22T06:45:52.738Z,9.90
2022-12-22T06:48:21.380Z,9.90
2022-12-22T06:50:49.486Z,9.90
2022-12-22T06:53:18.155Z,9.90
2022-12-22T06:55:48.127Z,10.00
2022-12-22T06:58:16.178Z,10.00
2022-12-22T07:00:45.432Z,9.90
2022-12-22T07:03:14.119Z,9.90
2022-12-22T07:05:42.415Z,9.90
2022-12-22T07:08:10.421Z,9.90
2022-12-22T07:10:56.383Z,9.90
2022-12-22T07:13:27.338Z,9.90
2022-12-22T07:16:00.776Z,9.80
2022-12-22T07:18:30.477Z,9.70
2022-12-22T07:20:58.894Z,9.80
2022-12-22T07:23:27.534Z,9.70
2022-12-22T07:25:55.617Z,9.80
2022-12-22T07:28:25.125Z,9.70
2022-12-22T07:30:54.369Z,9.80
2022-12-22T07:33:22.511Z,9.80
2022-12-22T07:36:01.206Z,9.70
2022-12-22T07:38:29.214Z,9.80
2022-12-22T07:41:04.478Z,9.80
2022-12-22T07:43:33.707Z,9.70
2022-12-22T07:46:01.782Z,9.70
2022-12-22T07:48:47.428Z,9.60
2022-12-22T07:51:15.434Z,9.60
2022-12-22T07:53:43.457Z,9.70
2022-12-22T07:56:11.450Z,9.60
2022-12-22T07:58:40.847Z,9.60
2022-12-22T08:01:08.853Z,9.50
2022-12-22T08:03:36.860Z,9.50
2022-12-22T08:06:05.900Z,9.50
2022-12-22T08:08:35.943Z,9.50
2022-12-22T08:11:04.231Z,9.50
2022-12-22T08:13:32.344Z,9.50
2022-12-22T08:16:05.405Z,9.50
2022-12-22T08:18:34.427Z,9.50
2022-12-22T08:21:03.114Z,9.50
2022-12-22T08:23:31.463Z,9.50
2022-12-22T08:26:04.429Z,9.50
2022-12-22T08:28:37.339Z,9.50
2022-12-22T08:31:07.144Z,9.40
2022-12-22T08:33:35.296Z,9.50
2022-12-22T08:36:08.018Z,9.40
2022-12-22T08:38:37.625Z,9.50
2022-12-22T08:41:06.224Z,9.50
2022-12-22T08:43:34.642Z,9.40
2022-12-22T08:46:03.019Z,9.40
2022-12-22T08:48:32.470Z,9.50
2022-12-22T08:51:00.525Z,9.50
2022-12-22T08:56:17.085Z,9.60
2022-12-22T08:58:45.315Z,9.60
2022-12-22T09:01:18.220Z,9.70
2022-12-22T09:03:51.216Z,9.60
2022-12-22T09:06:25.123Z,9.60
2022-12-22T09:08:56.423Z,9.60
2022-12-22T09:11:24.786Z,9.70
2022-12-22T09:13:53.387Z,9.70
2022-12-22T09:16:22.791Z,9.80
2022-12-22T09:18:52.503Z,9.90
2022-12-22T09:21:20.741Z,9.90
2022-12-22T09:23:48.814Z,9.90
2022-12-22T09:26:19.155Z,9.90
2022-12-22T09:28:50.591Z,9.90
2022-12-22T09:31:19.378Z,10.00
2022-12-22T09:33:47.511Z,10.00
2022-12-22T09:36:18.971Z,10.10
2022-12-22T09:38:47.723Z,10.00
2022-12-22T09:41:18.823Z,10.00
2022-12-22T09:43:47.431Z,10.00
2022-12-22T09:46:21.716Z,10.00
2022-12-22T09:48:50.269Z,10.10
2022-12-22T09:51:26.433Z,10.20
2022-12-22T09:53:58.851Z,10.20
2022-12-22T09:56:29.026Z,10.20
2022-12-22T09:58:58.136Z,10.20
2022-12-22T10:01:41.576Z,10.20
2022-12-22T10:04:18.839Z,10.30
2022-12-22T10:06:56.878Z,10.30
2022-12-22T10:09:48.829Z,10.20
2022-12-22T10:12:18.160Z,10.10
2022-12-22T10:14:48.276Z,10.10
2022-12-22T10:17:21.980Z,10.00
2022-12-22T10:19:51.586Z,10.00
2022-12-22T10:22:28.477Z,10.00
2022-12-22T10:24:56.707Z,10.00
2022-12-22T10:27:29.453Z,10.00
2022-12-22T10:30:18.956Z,10.00
2022-12-22T10:33:03.501Z,10.00
2022-12-22T10:35:48.505Z,10.00
2022-12-22T10:38:28.059Z,10.00
2022-12-22T10:41:02.209Z,9.90
2022-12-22T10:43:35.774Z,9.90
2022-12-22T10:46:05.289Z,9.90
2022-12-22T10:48:35.561Z,10.00
2022-12-22T10:51:07.702Z,10.00
2022-12-22T10:53:43.985Z,10.00
2022-12-22T10:56:22.659Z,10.00
2022-12-22T10:58:53.039Z,10.10
2022-12-22T11:01:27.186Z,10.00
2022-12-22T11:03:55.345Z,9.90
2022-12-22T11:06:23.600Z,9.90
2022-12-22T11:08:53.004Z,10.00
2022-12-22T11:11:45.655Z,10.00
2022-12-22T11:14:21.063Z,10.00
2022-12-22T11:16:55.182Z,10.00
2022-12-22T11:19:42.600Z,10.00
2022-12-22T11:22:21.378Z,10.10
2022-12-22T11:25:02.732Z,10.30
2022-12-22T11:27:44.060Z,10.20
2022-12-22T11:30:17.308Z,10.10
2022-12-22T11:33:08.802Z,10.20
2022-12-22T11:35:52.109Z,10.30
2022-12-22T11:38:28.022Z,10.20
2022-12-22T11:41:05.361Z,10.20
2022-12-22T11:43:43.863Z,10.10
2022-12-22T11:46:22.253Z,10.10
2022-12-22T11:49:04.465Z,10.20
2022-12-22T11:51:52.611Z,10.10
2022-12-22T11:54:40.788Z,10.10
2022-12-22T11:57:20.226Z,10.20
2022-12-22T11:59:56.343Z,10.20
2022-12-22T12:02:49.794Z,10.00
2022-12-22T12:05:35.674Z,10.00
2022-12-22T12:08:11.323Z,10.00
2022-12-22T12:10:45.976Z,10.00
2022-12-22T12:13:31.586Z,10.00
2022-12-22T12:16:13.823Z,10.00
2022-12-22T12:19:05.074Z,10.00
2022-12-22T12:21:43.075Z,10.00
2022-12-22T12:24:27.038Z,10.00
2022-12-22T12:27:04.984Z,10.00
2022-12-22T12:29:38.535Z,9.90
2022-12-22T12:32:14.212Z,10.00
2022-12-22T12:34:46.542Z,10.10
2022-12-22T12:37:21.449Z,10.10
2022-12-22T12:40:06.150Z,10.20
2022-12-22T12:42:36.259Z,10.30
2022-12-22T12:45:27.266Z,10.30
2022-12-22T12:48:01.847Z,10.40
2022-12-22T12:50:34.950Z,10.40
2022-12-22T12:53:08.397Z,10.30
2022-12-22T12:55:56.259Z,10.20
2022-12-22T12:58:51.545Z,10.20
2022-12-22T13:01:58.683Z,10.30
2022-12-22T13:05:10.473Z,10.30
2022-12-22T13:08:24.736Z,10.30
2022-12-22T13:12:10.669Z,10.40
2022-12-22T13:14:55.868Z,10.30
2022-12-22T13:17:48.747Z,10.20
2022-12-22T13:20:23.278Z,10.20
2022-12-22T13:22:53.191Z,10.00
2022-12-22T13:25:22.061Z,10.00
2022-12-22T13:27:50.288Z,10.00
2022-12-22T13:30:20.822Z,10.00
2022-12-22T13:32:51.277Z,10.00
2022-12-22T13:35:33.157Z,10.00
2022-12-22T13:38:03.083Z,9.90
2022-12-22T13:40:32.770Z,10.00
2022-12-22T13:43:06.297Z,10.00
2022-12-22T13:45:37.842Z,10.00
2022-12-22T13:48:18.429Z,9.90
2022-12-22T13:50:49.777Z,9.90
2022-12-22T13:56:15.986Z,9.80
2022-12-22T13:58:46.042Z,9.70
2022-12-22T14:01:18.234Z,9.70
2022-12-22T14:04:02.180Z,9.70
2022-12-22T14:06:32.244Z,9.70
2022-12-22T14:09:14.429Z,9.60
2022-12-22T14:11:50.664Z,9.70
2022-12-22T14:14:25.745Z,9.50
2022-12-22T14:16:56.918Z,9.50
2022-12-22T14:19:27.738Z,9.40
2022-12-22T14:22:03.503Z,9.40
2022-12-22T14:24:38.404Z,9.40
2022-12-22T14:27:13.181Z,9.40
2022-12-22T14:29:41.943Z,9.40
2022-12-22T14:32:10.587Z,9.30
2022-12-22T14:34:40.089Z,9.30
2022-12-22T14:37:11.437Z,9.30
2022-12-22T14:39:39.590Z,9.30
2022-12-22T14:42:14.069Z,9.30
2022-12-22T14:44:45.119Z,9.30
2022-12-22T14:47:17.333Z,9.20
2022-12-22T14:49:50.031Z,9.10
2022-12-22T14:52:23.394Z,9.00
2022-12-22T14:54:54.358Z,8.90
2022-12-22T14:57:30.107Z,8.90
2022-12-22T15:00:05.793Z,8.80
2022-12-22T15:02:39.486Z,8.70
2022-12-22T15:05:17.653Z,8.50
2022-12-22T15:08:05.408Z,8.60
2022-12-22T15:10:39.068Z,8.50
2022-12-22T15:13:12.941Z,8.50
2022-12-22T15:15:41.031Z,8.50
2022-12-22T15:18:14.404Z,8.40
2022-12-22T15:20:43.918Z,8.50
2022-12-22T15:23:16.631Z,8.40
2022-12-22T15:25:44.930Z,8.40
2022-12-22T15:28:13.016Z,8.50
2022-12-22T15:30:41.946Z,8.40
2022-12-22T15:33:13.973Z,8.40
2022-12-22T15:35:44.028Z,8.40
2022-12-22T15:38:14.799Z,8.40
2022-12-22T15:40:42.993Z,8.40
2022-12-22T15:43:28.812Z,8.40
2022-12-22T15:45:59.781Z,8.30
2022-12-22T15:48:31.805Z,8.20
2022-12-22T15:51:02.662Z,8.10
2022-12-22T15:53:31.449Z,8.00
2022-12-22T15:55:59.561Z,7.80
2022-12-22T15:58:31.913Z,7.70
2022-12-22T16:00:59.940Z,7.50
2022-12-22T16:03:28.391Z,7.40
2022-12-22T16:05:56.544Z,7.30
2022-12-22T16:08:30.683Z,7.20
2022-12-22T16:10:59.415Z,7.10
2022-12-22T16:13:29.121Z,7.00
2022-12-22T16:15:58.326Z,7.00
2022-12-22T16:18:26.664Z,6.90
2022-12-22T16:20:55.662Z,6.80
2022-12-22T16:23:27.387Z,6.80
2022-12-22T16:26:01.771Z,6.90
2022-12-22T16:28:31.019Z,6.70
2022-12-22T16:31:00.316Z,6.80
2022-12-22T16:33:28.873Z,6.70
2022-12-22T16:35:56.919Z,6.70
2022-12-22T16:38:26.308Z,6.80
2022-12-22T16:40:54.740Z,6.80
2022-12-22T16:46:16.205Z,6.90
2022-12-22T16:48:47.435Z,6.90
2022-12-22T16:51:22.009Z,7.10
2022-12-22T16:53:51.512Z,7.20
2022-12-22T16:56:21.559Z,7.20
2022-12-22T16:58:49.795Z,7.30
2022-12-22T17:01:32.518Z,7.30
2022-12-22T17:04:05.199Z,7.30
2022-12-22T17:06:33.710Z,7.40
2022-12-22T17:09:03.901Z,7.50
2022-12-22T17:11:32.619Z,7.50
2022-12-22T17:14:06.657Z,7.50
2022-12-22T17:16:34.923Z,7.50
2022-12-22T17:19:03.957Z,7.50
2022-12-22T17:21:32.011Z,7.60
2022-12-22T17:24:03.897Z,7.60
2022-12-22T17:26:35.399Z,7.60
2022-12-22T17:29:03.535Z,7.70
2022-12-22T17:31:31.642Z,7.70
2022-12-22T17:33:59.683Z,7.80
2022-12-22T17:36:32.958Z,7.80
2022-12-22T17:39:01.674Z,7.90
2022-12-22T17:41:30.076Z,7.90
2022-12-22T17:43:59.665Z,7.90
2022-12-22T17:46:28.581Z,8.00
2022-12-22T17:48:56.631Z,8.00
2022-12-22T17:51:27.811Z,8.10
2022-12-22T17:53:57.735Z,8.00
2022-12-22T17:56:28.203Z,8.00
2022-12-22T17:58:56.311Z,8.00
2022-12-22T18:01:28.579Z,8.10
2022-12-22T18:03:57.731Z,8.10
2022-12-22T18:06:29.226Z,8.00
2022-12-22T18:08:57.990Z,8.20
2022-12-22T18:11:26.917Z,8.10
2022-12-22T18:13:57.103Z,8.10
2022-12-22T18:16:26.667Z,8.10
2022-12-22T18:18:54.779Z,8.10
2022-12-22T18:21:24.873Z,8.20
2022-12-22T18:23:53.399Z,8.20
2022-12-22T18:26:24.155Z,8.20
2022-12-22T18:28:53.243Z,8.20
2022-12-22T18:31:22.988Z,8.20
2022-12-22T18:33:52.563Z,8.10
2022-12-22T18:36:24.277Z,8.20
2022-12-22T18:38:52.387Z,8.20
2022-12-22T18:41:23.182Z,8.20
2022-12-22T18:43:51.315Z,8.20
2022-12-22T18:46:19.933Z,8.30
2022-12-22T18:48:48.264Z,8.30
2022-12-22T18:51:21.266Z,8.30
2022-12-22T18:53:51.936Z,8.30
2022-12-22T18:56:20.689Z,8.30
2022-12-22T18:58:48.837Z,8.30
2022-12-22T19:01:22.852Z,8.30
2022-12-22T19:03:52.842Z,8.30
2022-12-22T19:06:23.625Z,8.30
2022-12-22T19:08:52.156Z,8.30
2022-12-22T19:11:25.939Z,8.40
2022-12-22T19:13:53.964Z,8.40
2022-12-22T19:16:26.607Z,8.40
2022-12-22T19:18:57.011Z,8.40
2022-12-22T19:21:27.725Z,8.40
2022-12-22T19:23:55.794Z,8.50
2022-12-22T19:26:26.424Z,8.50
2022-12-22T19:28:56.834Z,8.40
2022-12-22T19:31:26.823Z,8.50
2022-12-22T19:33:56.828Z,8.50
2022-12-22T19:36:28.255Z,8.40
2022-12-22T19:39:05.844Z,8.50
2022-12-22T19:41:40.639Z,8.50
2022-12-22T19:44:18.806Z,8.50
2022-12-22T19:46:47.463Z,8.50
2022-12-22T19:49:17.551Z,8.50
2022-12-22T19:51:47.215Z,8.50
2022-12-22T19:54:15.782Z,8.60
2022-12-22T19:56:47.250Z,8.50
2022-12-22T19:59:28.185Z,8.60
2022-12-22T20:01:59.713Z,8.60
2022-12-22T20:04:28.279Z,8.60
2022-12-22T20:06:57.762Z,8.60
2022-12-22T20:09:25.803Z,8.70
2022-12-22T20:11:53.857Z,8.60
2022-12-22T20:14:21.892Z,8.60
2022-12-22T20:16:50.134Z,8.70
2022-12-22T20:19:18.251Z,8.70
2022-12-22T20:21:46.331Z,8.70
2022-12-22T20:24:21.718Z,8.70
2022-12-22T20:26:54.083Z,8.70
2022-12-22T20:29:24.183Z,8.70
2022-12-22T20:31:52.675Z,8.70
2022-12-22T20:34:20.743Z,8.70
2022-12-22T20:36:48.814Z,8.80
2022-12-22T20:39:20.264Z,8.80
2022-12-22T20:41:53.044Z,8.70
2022-12-22T20:44:22.731Z,8.80
2022-12-22T20:46:50.819Z,8.80
2022-12-22T20:49:18.854Z,8.80
2022-12-22T20:51:47.007Z,8.80
2022-12-22T20:54:15.924Z,8.80
2022-12-22T20:56:46.163Z,8.80
2022-12-22T20:59:16.381Z,8.90
2022-12-22T21:01:44.565Z,8.90
2022-12-22T21:04:14.126Z,8.90
2022-12-22T21:06:46.905Z,8.90
2022-12-22T21:09:16.027Z,9.10
2022-12-22T21:11:45.648Z,8.90
2022-12-22T21:14:13.900Z,8.90
2022-12-22T21:16:43.091Z,8.90
2022-12-22T21:19:17.263Z,8.90
2022-12-22T21:21:45.427Z,8.90
2022-12-22T21:24:13.401Z,8.90
2022-12-22T21:26:45.414Z,9.00
2022-12-22T21:29:19.702Z,9.00
2022-12-22T21:31:47.752Z,8.90
2022-12-22T21:34:15.855Z,8.90
2022-12-22T21:36:46.142Z,8.90
2022-12-22T21:39:22.589Z,8.80
2022-12-22T21:42:04.259Z,8.90
2022-12-22T21:44:35.812Z,9.00
2022-12-22T21:47:04.760Z,8.90
2022-12-22T21:49:34.405Z,8.90
2022-12-22T21:52:02.637Z,8.90
2022-12-22T21:54:30.767Z,8.90
2022-12-22T21:56:58.872Z,9.00
2022-12-22T21:59:26.957Z,9.00
2022-12-22T22:01:57.132Z,8.90
2022-12-22T22:04:25.428Z,9.00
2022-12-22T22:06:53.463Z,9.00
2022-12-22T22:09:21.477Z,9.00
2022-12-22T22:12:07.127Z,9.00
2022-12-22T22:14:35.350Z,9.00
2022-12-22T22:17:04.935Z,9.00
2022-12-22T22:19:32.926Z,9.00
2022-12-22T22:22:00.933Z,9.10
2022-12-22T22:24:30.839Z,9.00
2022-12-22T22:26:58.861Z,9.00
2022-12-22T22:29:26.850Z,9.00
2022-12-22T22:31:54.886Z,8.90
2022-12-22T22:34:24.219Z,9.00
2022-12-22T22:36:52.625Z,8.90
2022-12-22T22:39:20.643Z,8.90
2022-12-22T22:41:48.642Z,8.90
2022-12-22T22:44:16.727Z,8.90
2022-12-22T22:46:44.849Z,8.90
2022-12-22T22:49:12.875Z,9.00
2022-12-22T22:51:42.265Z,9.00
2022-12-22T22:54:13.023Z,8.90
2022-12-22T22:56:41.177Z,9.00
2022-12-22T22:59:11.864Z,9.00
2022-12-22T23:01:40.346Z,9.00
2022-12-22T23:04:09.026Z,9.00
2022-12-22T23:06:37.220Z,9.00
2022-12-22T23:09:06.693Z,9.00
2022-12-22T23:11:34.791Z,9.00
2022-12-22T23:14:03.111Z,9.00
2022-12-22T23:16:37.625Z,9.00
2022-12-22T23:19:06.873Z,9.00
2022-12-22T23:21:34.969Z,9.00
2022-12-22T23:24:03.085Z,8.90
2022-12-22T23:26:32.893Z,9.00
2022-12-22T23:29:03.736Z,8.90
2022-12-22T23:31:32.508Z,8.90
2022-12-22T23:34:00.851Z,8.90
2022-12-22T23:36:29.022Z,8.90
2022-12-22T23:38:57.403Z,8.90
2022-12-22T23:41:25.387Z,8.90
2022-12-22T23:43:55.476Z,8.90
2022-12-22T23:46:24.015Z,8.90
2022-12-22T23:48:53.319Z,8.90
2022-12-22T23:51:22.534Z,8.90
2022-12-22T23:53:50.635Z,8.90
2022-12-22T23:56:18.687Z,8.90
2022-12-22T23:58:51.025Z,8.90
